KAL1691 RKSI-RJAA
Flight info
| Callsign | KAL1691 |
|---|---|
| Flight time | 1h 52m |
| Altitude | 39000 |
| Route | EGOBA2H EGOBA Y697 KARBU DCT LANAT Y51 SAMON Y517 ESKAS Y303 ENTAK Y30 SWAMP |
| Aircraft | B77W/H-SDE1E2E3FGHIJ2J3J4J5M1RWXY/LB1D1 |
Departure
| Time | 2026-05-04 23:19 |
|---|---|
| Airport | Incheon International Airport (RKSI) |
Arrival
| Time | 2026-05-05 01:12 |
|---|---|
| Airport | Narita International Airport (RJAA) |
| Time | Latitude | Longitude | Altitude | Speed | Heading |
|---|---|---|---|---|---|
| 2026-05-04 21:56 | 37.45518 | 126.44187 | 37 ft | 0 kts | 144° |
| 2026-05-04 22:18 | 37.45519 | 126.44187 | 37 ft | 0 kts | 144° |
| 2026-05-04 22:42 | 37.45519 | 126.44186 | 37 ft | 0 kts | 144° |
| 2026-05-04 22:51 | 37.45531 | 126.44175 | 36 ft | 3 kts | 144° |
| 2026-05-04 22:51 | 37.45553 | 126.44156 | 35 ft | 2 kts | 145° |
| 2026-05-04 22:52 | 37.45573 | 126.44143 | 37 ft | 3 kts | 186° |
| 2026-05-04 22:52 | 37.45593 | 126.44158 | 35 ft | 3 kts | 234° |
| 2026-05-04 22:52 | 37.45603 | 126.44176 | 35 ft | 2 kts | 234° |
| 2026-05-04 23:02 | 37.45603 | 126.44177 | 37 ft | 0 kts | 234° |
| 2026-05-04 23:09 | 37.45601 | 126.44169 | 37 ft | 4 kts | 250° |
| 2026-05-04 23:10 | 37.45579 | 126.44068 | 37 ft | 17 kts | 251° |
| 2026-05-04 23:10 | 37.45547 | 126.43953 | 37 ft | 11 kts | 245° |
| 2026-05-04 23:10 | 37.45511 | 126.43863 | 38 ft | 12 kts | 244° |
| 2026-05-04 23:10 | 37.45466 | 126.43777 | 38 ft | 12 kts | 232° |
| 2026-05-04 23:11 | 37.45440 | 126.43679 | 38 ft | 12 kts | 274° |
| 2026-05-04 23:11 | 37.45484 | 126.43589 | 38 ft | 12 kts | 316° |
| 2026-05-04 23:11 | 37.45556 | 126.43528 | 38 ft | 13 kts | 337° |
| 2026-05-04 23:11 | 37.45622 | 126.43453 | 38 ft | 13 kts | 320° |
| 2026-05-04 23:12 | 37.45695 | 126.43388 | 38 ft | 13 kts | 326° |
| 2026-05-04 23:12 | 37.45771 | 126.43324 | 38 ft | 14 kts | 326° |
| 2026-05-04 23:12 | 37.45893 | 126.43217 | 38 ft | 32 kts | 323° |
| 2026-05-04 23:12 | 37.46122 | 126.43007 | 38 ft | 44 kts | 324° |
| 2026-05-04 23:13 | 37.46366 | 126.42790 | 36 ft | 42 kts | 324° |
| 2026-05-04 23:13 | 37.46600 | 126.42583 | 38 ft | 38 kts | 324° |
| 2026-05-04 23:13 | 37.46812 | 126.42395 | 38 ft | 37 kts | 325° |
| 2026-05-04 23:13 | 37.47016 | 126.42215 | 38 ft | 35 kts | 325° |
| 2026-05-04 23:14 | 37.47204 | 126.42045 | 38 ft | 31 kts | 325° |
| 2026-05-04 23:14 | 37.47352 | 126.41914 | 38 ft | 22 kts | 323° |
| 2026-05-04 23:14 | 37.47386 | 126.41831 | 38 ft | 0 kts | 273° |
| 2026-05-04 23:15 | 37.47386 | 126.41829 | 38 ft | 1 kts | 271° |
| 2026-05-04 23:15 | 37.47380 | 126.41784 | 38 ft | 1 kts | 250° |
| 2026-05-04 23:15 | 37.47378 | 126.41780 | 38 ft | 1 kts | 245° |
| 2026-05-04 23:15 | 37.47374 | 126.41770 | 38 ft | 2 kts | 242° |
| 2026-05-04 23:16 | 37.47366 | 126.41753 | 38 ft | 3 kts | 239° |
| 2026-05-04 23:16 | 37.47354 | 126.41729 | 38 ft | 4 kts | 237° |
| 2026-05-04 23:16 | 37.47352 | 126.41726 | 38 ft | 0 kts | 236° |
| 2026-05-04 23:17 | 37.47349 | 126.41720 | 38 ft | 0 kts | 236° |
| 2026-05-04 23:17 | 37.47309 | 126.41653 | 38 ft | 23 kts | 224° |
| 2026-05-04 23:17 | 37.47194 | 126.41642 | 38 ft | 0 kts | 148° |
| 2026-05-04 23:19 | 37.47180 | 126.41653 | 38 ft | 22 kts | 146° |
| 2026-05-04 23:19 | 37.46773 | 126.42013 | 38 ft | 117 kts | 144° |
| 2026-05-04 23:19 | 37.45892 | 126.42801 | 98 ft | 184 kts | 144° |
| 2026-05-04 23:19 | 37.44797 | 126.43797 | 697 ft | 197 kts | 144° |
| 2026-05-04 23:20 | 37.43656 | 126.44711 | 1667 ft | 195 kts | 153° |
| 2026-05-04 23:20 | 37.42429 | 126.45601 | 2221 ft | 217 kts | 154° |
| 2026-05-04 23:20 | 37.41016 | 126.46626 | 2583 ft | 248 kts | 153° |
| 2026-05-04 23:20 | 37.39520 | 126.47728 | 3491 ft | 255 kts | 152° |
| 2026-05-04 23:21 | 37.37940 | 126.48756 | 4401 ft | 258 kts | 163° |
| 2026-05-04 23:21 | 37.36199 | 126.49372 | 5372 ft | 261 kts | 168° |
| 2026-05-04 23:21 | 37.35004 | 126.49736 | 6025 ft | 264 kts | 168° |
| 2026-05-04 23:21 | 37.32602 | 126.50495 | 7211 ft | 272 kts | 168° |
| 2026-05-04 23:22 | 37.31382 | 126.50895 | 7814 ft | 275 kts | 167° |
| 2026-05-04 23:22 | 37.29562 | 126.51664 | 8592 ft | 281 kts | 152° |
| 2026-05-04 23:22 | 37.28161 | 126.53421 | 9350 ft | 293 kts | 119° |
| 2026-05-04 23:22 | 37.27614 | 126.55888 | 10264 ft | 295 kts | 96° |
| 2026-05-04 23:23 | 37.27427 | 126.58507 | 10837 ft | 311 kts | 96° |
| 2026-05-04 23:23 | 37.27216 | 126.61354 | 11137 ft | 339 kts | 96° |
| 2026-05-04 23:23 | 37.27072 | 126.64351 | 11946 ft | 350 kts | 90° |
| 2026-05-04 23:23 | 37.27204 | 126.67440 | 13007 ft | 355 kts | 86° |
| 2026-05-04 23:24 | 37.27425 | 126.70504 | 14132 ft | 359 kts | 85° |
| 2026-05-04 23:24 | 37.27651 | 126.73641 | 15183 ft | 362 kts | 85° |
| 2026-05-04 23:24 | 37.27859 | 126.76828 | 16232 ft | 366 kts | 86° |
| 2026-05-04 23:24 | 37.28048 | 126.80032 | 17282 ft | 371 kts | 86° |
| 2026-05-04 23:25 | 37.28227 | 126.83292 | 18325 ft | 376 kts | 86° |
| 2026-05-04 23:25 | 37.28402 | 126.86592 | 19257 ft | 382 kts | 86° |
| 2026-05-04 23:25 | 37.28583 | 126.89944 | 20094 ft | 389 kts | 85° |
| 2026-05-04 23:25 | 37.28854 | 126.93301 | 20953 ft | 394 kts | 83° |
| 2026-05-04 23:26 | 37.29189 | 126.96747 | 21839 ft | 400 kts | 83° |
| 2026-05-04 23:26 | 37.29534 | 127.00253 | 22668 ft | 407 kts | 83° |
| 2026-05-04 23:26 | 37.29873 | 127.03826 | 23476 ft | 414 kts | 83° |
| 2026-05-04 23:26 | 37.30203 | 127.07448 | 24238 ft | 420 kts | 83° |
| 2026-05-04 23:27 | 37.30528 | 127.11073 | 24986 ft | 423 kts | 83° |
| 2026-05-04 23:27 | 37.31067 | 127.14707 | 25711 ft | 426 kts | 73° |
| 2026-05-04 23:27 | 37.32025 | 127.18253 | 26399 ft | 431 kts | 69° |
| 2026-05-04 23:27 | 37.33083 | 127.21796 | 27089 ft | 432 kts | 66° |
| 2026-05-04 23:28 | 37.34622 | 127.25076 | 27577 ft | 439 kts | 49° |
| 2026-05-04 23:28 | 37.36899 | 127.27633 | 28178 ft | 441 kts | 33° |
| 2026-05-04 23:28 | 37.39423 | 127.29751 | 29014 ft | 441 kts | 32° |
| 2026-05-04 23:28 | 37.41992 | 127.31937 | 29389 ft | 453 kts | 33° |
| 2026-05-04 23:29 | 37.44630 | 127.34253 | 29490 ft | 468 kts | 33° |
| 2026-05-04 23:29 | 37.47157 | 127.36903 | 29546 ft | 482 kts | 47° |
| 2026-05-04 23:29 | 37.49036 | 127.40447 | 29735 ft | 495 kts | 64° |
| 2026-05-04 23:29 | 37.50020 | 127.44622 | 30049 ft | 499 kts | 79° |
| 2026-05-04 23:30 | 37.50577 | 127.48969 | 30454 ft | 502 kts | 79° |
| 2026-05-04 23:30 | 37.51188 | 127.53311 | 30906 ft | 502 kts | 78° |
| 2026-05-04 23:30 | 37.51868 | 127.57625 | 31431 ft | 501 kts | 77° |
| 2026-05-04 23:30 | 37.52464 | 127.61897 | 31911 ft | 502 kts | 83° |
| 2026-05-04 23:31 | 37.52524 | 127.66286 | 32376 ft | 503 kts | 94° |
| 2026-05-04 23:31 | 37.52033 | 127.70657 | 32864 ft | 503 kts | 102° |
| 2026-05-04 23:31 | 37.51036 | 127.74874 | 33268 ft | 504 kts | 110° |
| 2026-05-04 23:31 | 37.49800 | 127.79019 | 33693 ft | 505 kts | 111° |
| 2026-05-04 23:32 | 37.48552 | 127.83141 | 34149 ft | 504 kts | 111° |
| 2026-05-04 23:32 | 37.47303 | 127.87283 | 34532 ft | 504 kts | 111° |
| 2026-05-04 23:32 | 37.46067 | 127.91421 | 34860 ft | 506 kts | 111° |
| 2026-05-04 23:32 | 37.44839 | 127.95581 | 35155 ft | 508 kts | 111° |
| 2026-05-04 23:33 | 37.43609 | 127.99779 | 35391 ft | 511 kts | 111° |
| 2026-05-04 23:33 | 37.42395 | 128.03938 | 35682 ft | 513 kts | 111° |
| 2026-05-04 23:33 | 37.41164 | 128.08159 | 36020 ft | 513 kts | 111° |
| 2026-05-04 23:33 | 37.39935 | 128.12372 | 36358 ft | 513 kts | 112° |
| 2026-05-04 23:34 | 37.38702 | 128.16590 | 36665 ft | 515 kts | 112° |
| 2026-05-04 23:34 | 37.37459 | 128.20833 | 36959 ft | 516 kts | 112° |
| 2026-05-04 23:34 | 37.36212 | 128.25077 | 37212 ft | 518 kts | 112° |
| 2026-05-04 23:34 | 37.34973 | 128.29288 | 37515 ft | 519 kts | 112° |
| 2026-05-04 23:35 | 37.33713 | 128.33562 | 37821 ft | 519 kts | 112° |
| 2026-05-04 23:35 | 37.32454 | 128.37823 | 38116 ft | 520 kts | 112° |
| 2026-05-04 23:35 | 37.31210 | 128.42031 | 38397 ft | 521 kts | 113° |
| 2026-05-04 23:35 | 37.29947 | 128.46295 | 38675 ft | 522 kts | 113° |
| 2026-05-04 23:36 | 37.28679 | 128.50569 | 38922 ft | 523 kts | 113° |
| 2026-05-04 23:36 | 37.27405 | 128.54861 | 39075 ft | 525 kts | 113° |
| 2026-05-04 23:36 | 37.24836 | 128.63487 | 39194 ft | 527 kts | 113° |
| 2026-05-04 23:37 | 37.22272 | 128.72078 | 39161 ft | 523 kts | 113° |
| 2026-05-04 23:37 | 37.19735 | 128.80549 | 39144 ft | 520 kts | 113° |
| 2026-05-04 23:38 | 37.17188 | 128.89023 | 39143 ft | 518 kts | 114° |
| 2026-05-04 23:38 | 37.14637 | 128.97482 | 39131 ft | 518 kts | 114° |
| 2026-05-04 23:39 | 37.12075 | 129.05951 | 39132 ft | 520 kts | 114° |
| 2026-05-04 23:39 | 37.09495 | 129.14459 | 39118 ft | 522 kts | 114° |
| 2026-05-04 23:40 | 37.06914 | 129.22947 | 39127 ft | 525 kts | 114° |
| 2026-05-04 23:40 | 37.04306 | 129.31491 | 39117 ft | 526 kts | 114° |
| 2026-05-04 23:41 | 37.01685 | 129.40057 | 39111 ft | 528 kts | 114° |
| 2026-05-04 23:41 | 36.99062 | 129.48603 | 39110 ft | 528 kts | 114° |
| 2026-05-04 23:42 | 36.96419 | 129.57188 | 39110 ft | 529 kts | 114° |
| 2026-05-04 23:42 | 36.93768 | 129.65773 | 39103 ft | 529 kts | 115° |
| 2026-05-04 23:43 | 36.91114 | 129.74341 | 39115 ft | 528 kts | 115° |
| 2026-05-04 23:43 | 36.88467 | 129.82862 | 39099 ft | 528 kts | 115° |
| 2026-05-04 23:44 | 36.85798 | 129.91425 | 39117 ft | 528 kts | 115° |
| 2026-05-04 23:44 | 36.83126 | 129.99974 | 39120 ft | 528 kts | 115° |
| 2026-05-04 23:45 | 36.80444 | 130.08526 | 39120 ft | 528 kts | 115° |
| 2026-05-04 23:45 | 36.77773 | 130.17023 | 39134 ft | 529 kts | 115° |
| 2026-05-04 23:46 | 36.75074 | 130.25582 | 39116 ft | 529 kts | 115° |
| 2026-05-04 23:46 | 36.72374 | 130.34116 | 39139 ft | 529 kts | 115° |
| 2026-05-04 23:47 | 36.69681 | 130.42604 | 39135 ft | 530 kts | 115° |
| 2026-05-04 23:47 | 36.66958 | 130.51165 | 39130 ft | 531 kts | 116° |
| 2026-05-04 23:48 | 36.64225 | 130.59728 | 39140 ft | 531 kts | 116° |
| 2026-05-04 23:48 | 36.61504 | 130.68232 | 39143 ft | 532 kts | 116° |
| 2026-05-04 23:49 | 36.58757 | 130.76784 | 39154 ft | 532 kts | 116° |
| 2026-05-04 23:49 | 36.56006 | 130.85335 | 39149 ft | 532 kts | 116° |
| 2026-05-04 23:50 | 36.53250 | 130.93872 | 39136 ft | 531 kts | 116° |
| 2026-05-04 23:50 | 36.50489 | 131.02399 | 39158 ft | 530 kts | 116° |
| 2026-05-04 23:51 | 36.47744 | 131.10852 | 39153 ft | 530 kts | 116° |
| 2026-05-04 23:51 | 36.44976 | 131.19351 | 39150 ft | 530 kts | 116° |
| 2026-05-04 23:52 | 36.42208 | 131.27829 | 39163 ft | 530 kts | 116° |
| 2026-05-04 23:52 | 36.39454 | 131.36286 | 39144 ft | 532 kts | 114° |
| 2026-05-04 23:53 | 36.37527 | 131.45199 | 39163 ft | 539 kts | 103° |
| 2026-05-04 23:53 | 36.36798 | 131.54489 | 39167 ft | 543 kts | 94° |
| 2026-05-04 23:54 | 36.36575 | 131.63842 | 39160 ft | 544 kts | 94° |
| 2026-05-04 23:54 | 36.36349 | 131.73266 | 39173 ft | 545 kts | 94° |
| 2026-05-04 23:55 | 36.36067 | 131.82686 | 39163 ft | 546 kts | 94° |
| 2026-05-04 23:56 | 36.35594 | 131.96752 | 39171 ft | 546 kts | 95° |
| 2026-05-04 23:56 | 36.35269 | 132.06164 | 39167 ft | 545 kts | 95° |
| 2026-05-04 23:57 | 36.34940 | 132.15586 | 39180 ft | 546 kts | 95° |
| 2026-05-04 23:57 | 36.34606 | 132.24939 | 39188 ft | 546 kts | 95° |
| 2026-05-04 23:58 | 36.34263 | 132.34365 | 39179 ft | 546 kts | 95° |
| 2026-05-04 23:58 | 36.33912 | 132.43790 | 39170 ft | 546 kts | 95° |
| 2026-05-04 23:59 | 36.33555 | 132.53171 | 39183 ft | 546 kts | 95° |
| 2026-05-04 23:59 | 36.33189 | 132.62609 | 39168 ft | 547 kts | 95° |
| 2026-05-05 00:00 | 36.32817 | 132.71988 | 39192 ft | 548 kts | 95° |
| 2026-05-05 00:00 | 36.32435 | 132.81438 | 39200 ft | 549 kts | 95° |
| 2026-05-05 00:01 | 36.32045 | 132.90912 | 39205 ft | 550 kts | 95° |
| 2026-05-05 00:01 | 36.31647 | 133.00388 | 39197 ft | 551 kts | 96° |
| 2026-05-05 00:02 | 36.31244 | 133.09819 | 39196 ft | 551 kts | 96° |
| 2026-05-05 00:02 | 36.30831 | 133.19310 | 39195 ft | 551 kts | 96° |
| 2026-05-05 00:03 | 36.30410 | 133.28795 | 39194 ft | 551 kts | 96° |
| 2026-05-05 00:03 | 36.29982 | 133.38283 | 39193 ft | 550 kts | 96° |
| 2026-05-05 00:04 | 36.29547 | 133.47754 | 39201 ft | 550 kts | 96° |
| 2026-05-05 00:04 | 36.29106 | 133.57173 | 39210 ft | 550 kts | 96° |
| 2026-05-05 00:05 | 36.28657 | 133.66638 | 39190 ft | 550 kts | 96° |
| 2026-05-05 00:05 | 36.28199 | 133.76125 | 39207 ft | 550 kts | 96° |
| 2026-05-05 00:06 | 36.27722 | 133.85549 | 39211 ft | 551 kts | 96° |
| 2026-05-05 00:06 | 36.27226 | 133.95028 | 39213 ft | 551 kts | 97° |
| 2026-05-05 00:07 | 36.26727 | 134.04537 | 39213 ft | 552 kts | 97° |
| 2026-05-05 00:07 | 36.26224 | 134.14046 | 39216 ft | 553 kts | 97° |
| 2026-05-05 00:08 | 36.25733 | 134.23515 | 39214 ft | 554 kts | 97° |
| 2026-05-05 00:08 | 36.25231 | 134.33053 | 39215 ft | 554 kts | 97° |
| 2026-05-05 00:09 | 36.24720 | 134.42602 | 39210 ft | 555 kts | 97° |
| 2026-05-05 00:09 | 36.24777 | 134.52129 | 39227 ft | 559 kts | 86° |
| 2026-05-05 00:10 | 36.26067 | 134.61646 | 39248 ft | 560 kts | 78° |
| 2026-05-05 00:10 | 36.27739 | 134.71096 | 39224 ft | 561 kts | 78° |
| 2026-05-05 00:11 | 36.29374 | 134.80498 | 39231 ft | 561 kts | 78° |
| 2026-05-05 00:11 | 36.30964 | 134.89980 | 39214 ft | 561 kts | 79° |
| 2026-05-05 00:12 | 36.32528 | 134.99464 | 39225 ft | 561 kts | 79° |
| 2026-05-05 00:12 | 36.33825 | 135.07362 | 39228 ft | 561 kts | 79° |
| 2026-05-05 00:13 | 36.35632 | 135.18398 | 39224 ft | 562 kts | 79° |
| 2026-05-05 00:13 | 36.36923 | 135.26310 | 39223 ft | 562 kts | 79° |
| 2026-05-05 00:14 | 36.38469 | 135.35829 | 39231 ft | 562 kts | 79° |
| 2026-05-05 00:14 | 36.40008 | 135.45359 | 39234 ft | 563 kts | 79° |
| 2026-05-05 00:15 | 36.41539 | 135.54890 | 39222 ft | 563 kts | 79° |
| 2026-05-05 00:15 | 36.43068 | 135.64461 | 39231 ft | 563 kts | 79° |
| 2026-05-05 00:16 | 36.44580 | 135.73975 | 39234 ft | 564 kts | 79° |
| 2026-05-05 00:16 | 36.46094 | 135.83559 | 39229 ft | 565 kts | 80° |
| 2026-05-05 00:17 | 36.47591 | 135.93083 | 39232 ft | 565 kts | 80° |
| 2026-05-05 00:17 | 36.49090 | 136.02675 | 39237 ft | 565 kts | 80° |
| 2026-05-05 00:18 | 36.50587 | 136.12302 | 39212 ft | 566 kts | 80° |
| 2026-05-05 00:18 | 36.52075 | 136.21926 | 39218 ft | 566 kts | 80° |
| 2026-05-05 00:19 | 36.53545 | 136.31492 | 39218 ft | 566 kts | 80° |
| 2026-05-05 00:19 | 36.55020 | 136.41137 | 39217 ft | 567 kts | 80° |
| 2026-05-05 00:20 | 36.56485 | 136.50779 | 39229 ft | 567 kts | 80° |
| 2026-05-05 00:20 | 36.57943 | 136.60423 | 39226 ft | 567 kts | 80° |
| 2026-05-05 00:21 | 36.59385 | 136.70018 | 39211 ft | 568 kts | 81° |
| 2026-05-05 00:21 | 36.60830 | 136.79692 | 39221 ft | 568 kts | 81° |
| 2026-05-05 00:22 | 36.62271 | 136.89390 | 39197 ft | 569 kts | 81° |
| 2026-05-05 00:22 | 36.63691 | 136.99026 | 39196 ft | 569 kts | 81° |
| 2026-05-05 00:23 | 36.65085 | 137.08749 | 39191 ft | 570 kts | 81° |
| 2026-05-05 00:23 | 36.66463 | 137.18475 | 39193 ft | 570 kts | 81° |
| 2026-05-05 00:24 | 36.67832 | 137.28156 | 39193 ft | 570 kts | 81° |
| 2026-05-05 00:24 | 36.69204 | 137.37900 | 39193 ft | 570 kts | 81° |
| 2026-05-05 00:25 | 36.70569 | 137.47647 | 39216 ft | 571 kts | 81° |
| 2026-05-05 00:25 | 36.71931 | 137.57421 | 39216 ft | 572 kts | 82° |
| 2026-05-05 00:26 | 36.73280 | 137.67222 | 39243 ft | 576 kts | 82° |
| 2026-05-05 00:26 | 36.74626 | 137.77031 | 39204 ft | 577 kts | 81° |
| 2026-05-05 00:27 | 36.75970 | 137.86855 | 39228 ft | 572 kts | 82° |
| 2026-05-05 00:27 | 36.77297 | 137.96633 | 39239 ft | 570 kts | 82° |
| 2026-05-05 00:28 | 36.78602 | 138.06333 | 39237 ft | 570 kts | 82° |
| 2026-05-05 00:28 | 36.79921 | 138.16078 | 39232 ft | 567 kts | 82° |
| 2026-05-05 00:29 | 36.81267 | 138.25730 | 39214 ft | 557 kts | 82° |
| 2026-05-05 00:29 | 36.82561 | 138.35099 | 39225 ft | 549 kts | 82° |
| 2026-05-05 00:30 | 36.83843 | 138.44524 | 39249 ft | 552 kts | 82° |
| 2026-05-05 00:30 | 36.85125 | 138.54040 | 39213 ft | 556 kts | 82° |
| 2026-05-05 00:31 | 36.86386 | 138.63572 | 39208 ft | 556 kts | 82° |
| 2026-05-05 00:31 | 36.87634 | 138.73069 | 39215 ft | 558 kts | 82° |
| 2026-05-05 00:32 | 36.88887 | 138.82661 | 39224 ft | 559 kts | 82° |
| 2026-05-05 00:32 | 36.90134 | 138.92242 | 39227 ft | 559 kts | 82° |
| 2026-05-05 00:33 | 36.91374 | 139.01823 | 39213 ft | 557 kts | 82° |
| 2026-05-05 00:33 | 36.92588 | 139.11296 | 39235 ft | 553 kts | 82° |
| 2026-05-05 00:34 | 36.93827 | 139.20800 | 39145 ft | 553 kts | 83° |
| 2026-05-05 00:34 | 36.95066 | 139.30309 | 39245 ft | 551 kts | 82° |
| 2026-05-05 00:35 | 36.96291 | 139.39805 | 39236 ft | 554 kts | 83° |
| 2026-05-05 00:35 | 36.97504 | 139.49315 | 39215 ft | 557 kts | 83° |
| 2026-05-05 00:36 | 36.98709 | 139.58924 | 39186 ft | 559 kts | 83° |
| 2026-05-05 00:36 | 36.99901 | 139.68503 | 39199 ft | 561 kts | 83° |
| 2026-05-05 00:37 | 37.01102 | 139.78174 | 39212 ft | 563 kts | 83° |
| 2026-05-05 00:37 | 37.02286 | 139.87892 | 39173 ft | 565 kts | 83° |
| 2026-05-05 00:38 | 37.03466 | 139.97617 | 39189 ft | 564 kts | 83° |
| 2026-05-05 00:38 | 37.04656 | 140.07289 | 39173 ft | 565 kts | 83° |
| 2026-05-05 00:39 | 37.05889 | 140.17007 | 39169 ft | 565 kts | 83° |
| 2026-05-05 00:39 | 37.07102 | 140.26728 | 39171 ft | 565 kts | 83° |
| 2026-05-05 00:40 | 37.08264 | 140.36470 | 39164 ft | 565 kts | 83° |
| 2026-05-05 00:40 | 37.09412 | 140.46206 | 39177 ft | 565 kts | 83° |
| 2026-05-05 00:41 | 37.10051 | 140.55893 | 39145 ft | 554 kts | 102° |
| 2026-05-05 00:41 | 37.09285 | 140.60627 | 39160 ft | 542 kts | 116° |
| 2026-05-05 00:41 | 37.07927 | 140.64895 | 39189 ft | 528 kts | 127° |
| 2026-05-05 00:41 | 37.05982 | 140.68683 | 39188 ft | 508 kts | 139° |
| 2026-05-05 00:42 | 37.03748 | 140.72058 | 39183 ft | 496 kts | 149° |
| 2026-05-05 00:42 | 37.01073 | 140.74522 | 39199 ft | 462 kts | 168° |
| 2026-05-05 00:42 | 36.98144 | 140.75839 | 39204 ft | 434 kts | 182° |
| 2026-05-05 00:42 | 36.95194 | 140.76404 | 39200 ft | 423 kts | 189° |
| 2026-05-05 00:43 | 36.92292 | 140.76504 | 39193 ft | 411 kts | 196° |
| 2026-05-05 00:43 | 36.89596 | 140.75909 | 39068 ft | 381 kts | 208° |
| 2026-05-05 00:43 | 36.87122 | 140.74936 | 38728 ft | 375 kts | 209° |
| 2026-05-05 00:43 | 36.84630 | 140.73925 | 37969 ft | 377 kts | 210° |
| 2026-05-05 00:44 | 36.82124 | 140.72912 | 37232 ft | 381 kts | 210° |
| 2026-05-05 00:44 | 36.79584 | 140.71906 | 36579 ft | 381 kts | 209° |
| 2026-05-05 00:44 | 36.77069 | 140.70933 | 36141 ft | 376 kts | 209° |
| 2026-05-05 00:44 | 36.74567 | 140.69974 | 35621 ft | 374 kts | 209° |
| 2026-05-05 00:45 | 36.72108 | 140.69033 | 35046 ft | 373 kts | 209° |
| 2026-05-05 00:45 | 36.69620 | 140.68082 | 34485 ft | 372 kts | 209° |
| 2026-05-05 00:45 | 36.67156 | 140.67141 | 33883 ft | 371 kts | 209° |
| 2026-05-05 00:45 | 36.64675 | 140.66194 | 33115 ft | 372 kts | 210° |
| 2026-05-05 00:46 | 36.62193 | 140.65246 | 32288 ft | 374 kts | 209° |
| 2026-05-05 00:46 | 36.59696 | 140.64291 | 31446 ft | 377 kts | 209° |
| 2026-05-05 00:46 | 36.57210 | 140.63345 | 30662 ft | 377 kts | 209° |
| 2026-05-05 00:46 | 36.54712 | 140.62401 | 30053 ft | 373 kts | 209° |
| 2026-05-05 00:47 | 36.52214 | 140.61454 | 29215 ft | 373 kts | 209° |
| 2026-05-05 00:47 | 36.49746 | 140.60515 | 28613 ft | 369 kts | 209° |
| 2026-05-05 00:47 | 36.47303 | 140.59586 | 28122 ft | 364 kts | 209° |
| 2026-05-05 00:47 | 36.44931 | 140.58684 | 27616 ft | 359 kts | 209° |
| 2026-05-05 00:48 | 36.42539 | 140.57770 | 27003 ft | 359 kts | 209° |
| 2026-05-05 00:48 | 36.40131 | 140.56848 | 26221 ft | 365 kts | 208° |
| 2026-05-05 00:48 | 36.37677 | 140.55909 | 25424 ft | 372 kts | 208° |
| 2026-05-05 00:48 | 36.35087 | 140.55276 | 24492 ft | 398 kts | 192° |
| 2026-05-05 00:49 | 36.32228 | 140.55765 | 23791 ft | 430 kts | 172° |
| 2026-05-05 00:49 | 36.29491 | 140.57325 | 22995 ft | 435 kts | 153° |
| 2026-05-05 00:49 | 36.27238 | 140.59864 | 21740 ft | 441 kts | 135° |
| 2026-05-05 00:49 | 36.25276 | 140.62703 | 20544 ft | 438 kts | 133° |
| 2026-05-05 00:50 | 36.23256 | 140.65515 | 19424 ft | 433 kts | 134° |
| 2026-05-05 00:50 | 36.21182 | 140.68291 | 18542 ft | 443 kts | 134° |
| 2026-05-05 00:50 | 36.19076 | 140.71074 | 18144 ft | 439 kts | 133° |
| 2026-05-05 00:50 | 36.17007 | 140.73808 | 17852 ft | 431 kts | 133° |
| 2026-05-05 00:51 | 36.14976 | 140.76494 | 17603 ft | 423 kts | 133° |
| 2026-05-05 00:51 | 36.12915 | 140.79048 | 17213 ft | 415 kts | 142° |
| 2026-05-05 00:51 | 36.10464 | 140.80754 | 16631 ft | 406 kts | 165° |
| 2026-05-05 00:51 | 36.07781 | 140.81792 | 16052 ft | 404 kts | 166° |
| 2026-05-05 00:52 | 36.05110 | 140.82907 | 15604 ft | 405 kts | 164° |
| 2026-05-05 00:52 | 36.02461 | 140.84070 | 15262 ft | 401 kts | 163° |
| 2026-05-05 00:52 | 35.99851 | 140.85234 | 14928 ft | 398 kts | 163° |
| 2026-05-05 00:52 | 35.97254 | 140.86391 | 14553 ft | 395 kts | 163° |
| 2026-05-05 00:53 | 35.94669 | 140.87537 | 14187 ft | 394 kts | 163° |
| 2026-05-05 00:53 | 35.92122 | 140.88662 | 13850 ft | 391 kts | 163° |
| 2026-05-05 00:53 | 35.89576 | 140.89786 | 13501 ft | 385 kts | 163° |
| 2026-05-05 00:53 | 35.87098 | 140.90881 | 12912 ft | 372 kts | 163° |
| 2026-05-05 00:54 | 35.84682 | 140.91945 | 12142 ft | 366 kts | 163° |
| 2026-05-05 00:54 | 35.82298 | 140.92993 | 11419 ft | 359 kts | 163° |
| 2026-05-05 00:54 | 35.79993 | 140.94007 | 10962 ft | 340 kts | 163° |
| 2026-05-05 00:54 | 35.77839 | 140.94957 | 10600 ft | 318 kts | 163° |
| 2026-05-05 00:55 | 35.75825 | 140.95842 | 10184 ft | 302 kts | 163° |
| 2026-05-05 00:55 | 35.73868 | 140.96698 | 10026 ft | 301 kts | 163° |
| 2026-05-05 00:55 | 35.71904 | 140.97557 | 9994 ft | 292 kts | 163° |
| 2026-05-05 00:55 | 35.70038 | 140.98377 | 9986 ft | 278 kts | 163° |
| 2026-05-05 00:56 | 35.68244 | 140.99163 | 9990 ft | 270 kts | 163° |
| 2026-05-05 00:56 | 35.66471 | 140.99938 | 10013 ft | 270 kts | 163° |
| 2026-05-05 00:56 | 35.64698 | 141.00713 | 10018 ft | 271 kts | 163° |
| 2026-05-05 00:56 | 35.62910 | 141.01494 | 10020 ft | 272 kts | 163° |
| 2026-05-05 00:57 | 35.61124 | 141.02275 | 10013 ft | 272 kts | 163° |
| 2026-05-05 00:57 | 35.59334 | 141.03058 | 10012 ft | 273 kts | 163° |
| 2026-05-05 00:57 | 35.57546 | 141.03839 | 10002 ft | 273 kts | 164° |
| 2026-05-05 00:57 | 35.55782 | 141.04610 | 10000 ft | 272 kts | 164° |
| 2026-05-05 00:58 | 35.53996 | 141.05383 | 10004 ft | 271 kts | 166° |
| 2026-05-05 00:58 | 35.52180 | 141.05919 | 9981 ft | 265 kts | 179° |
| 2026-05-05 00:58 | 35.50438 | 141.05604 | 9600 ft | 248 kts | 214° |
| 2026-05-05 00:58 | 35.49205 | 141.04243 | 8964 ft | 234 kts | 241° |
| 2026-05-05 00:59 | 35.48450 | 141.02478 | 8414 ft | 238 kts | 253° |
| 2026-05-05 00:59 | 35.47961 | 141.00566 | 8171 ft | 232 kts | 258° |
| 2026-05-05 00:59 | 35.47544 | 140.98670 | 8008 ft | 228 kts | 259° |
| 2026-05-05 00:59 | 35.47138 | 140.96788 | 7848 ft | 229 kts | 258° |
| 2026-05-05 01:00 | 35.46726 | 140.94882 | 7710 ft | 233 kts | 258° |
| 2026-05-05 01:00 | 35.46448 | 140.93608 | 7605 ft | 234 kts | 258° |
| 2026-05-05 01:00 | 35.45886 | 140.91048 | 7411 ft | 234 kts | 258° |
| 2026-05-05 01:00 | 35.45459 | 140.89121 | 7247 ft | 233 kts | 258° |
| 2026-05-05 01:01 | 35.45033 | 140.87215 | 7084 ft | 232 kts | 257° |
| 2026-05-05 01:01 | 35.44748 | 140.85942 | 6990 ft | 232 kts | 257° |
| 2026-05-05 01:01 | 35.44320 | 140.84026 | 6833 ft | 234 kts | 257° |
| 2026-05-05 01:01 | 35.43886 | 140.82092 | 6698 ft | 236 kts | 257° |
| 2026-05-05 01:02 | 35.43448 | 140.80143 | 6540 ft | 238 kts | 257° |
| 2026-05-05 01:02 | 35.43006 | 140.78184 | 6371 ft | 239 kts | 257° |
| 2026-05-05 01:02 | 35.42563 | 140.76220 | 6197 ft | 239 kts | 257° |
| 2026-05-05 01:02 | 35.42121 | 140.74253 | 6043 ft | 237 kts | 259° |
| 2026-05-05 01:03 | 35.42104 | 140.72288 | 5717 ft | 230 kts | 290° |
| 2026-05-05 01:03 | 35.42660 | 140.70509 | 5392 ft | 226 kts | 293° |
| 2026-05-05 01:03 | 35.43210 | 140.68681 | 5017 ft | 231 kts | 292° |
| 2026-05-05 01:03 | 35.43766 | 140.66809 | 4641 ft | 235 kts | 293° |
| 2026-05-05 01:04 | 35.44333 | 140.64906 | 4233 ft | 239 kts | 293° |
| 2026-05-05 01:04 | 35.46229 | 140.61835 | 3995 ft | 230 kts | 320° |
| 2026-05-05 01:04 | 35.47405 | 140.60513 | 3984 ft | 227 kts | 319° |
| 2026-05-05 01:05 | 35.48534 | 140.59219 | 3962 ft | 222 kts | 319° |
| 2026-05-05 01:05 | 35.49658 | 140.57933 | 3959 ft | 220 kts | 319° |
| 2026-05-05 01:05 | 35.50767 | 140.56665 | 3964 ft | 214 kts | 319° |
| 2026-05-05 01:05 | 35.51849 | 140.55462 | 3947 ft | 205 kts | 324° |
| 2026-05-05 01:06 | 35.53020 | 140.54478 | 3964 ft | 203 kts | 330° |
| 2026-05-05 01:06 | 35.54228 | 140.53584 | 3962 ft | 201 kts | 331° |
| 2026-05-05 01:06 | 35.55434 | 140.52712 | 3958 ft | 200 kts | 331° |
| 2026-05-05 01:06 | 35.56627 | 140.51852 | 3943 ft | 194 kts | 331° |
| 2026-05-05 01:07 | 35.57738 | 140.51051 | 3916 ft | 185 kts | 330° |
| 2026-05-05 01:07 | 35.58865 | 140.50240 | 3658 ft | 184 kts | 330° |
| 2026-05-05 01:07 | 35.59954 | 140.49456 | 3408 ft | 183 kts | 330° |
| 2026-05-05 01:07 | 35.61047 | 140.48667 | 3153 ft | 181 kts | 330° |
| 2026-05-05 01:08 | 35.62112 | 140.47898 | 2930 ft | 175 kts | 330° |
| 2026-05-05 01:08 | 35.63149 | 140.47150 | 2691 ft | 168 kts | 329° |
| 2026-05-05 01:08 | 35.64112 | 140.46454 | 2465 ft | 153 kts | 329° |
| 2026-05-05 01:08 | 35.65003 | 140.45813 | 2288 ft | 145 kts | 330° |
| 2026-05-05 01:09 | 35.65867 | 140.45185 | 2058 ft | 142 kts | 329° |
| 2026-05-05 01:09 | 35.66733 | 140.44564 | 1867 ft | 144 kts | 330° |
| 2026-05-05 01:09 | 35.67583 | 140.43950 | 1698 ft | 144 kts | 330° |
| 2026-05-05 01:09 | 35.68444 | 140.43329 | 1461 ft | 143 kts | 329° |
| 2026-05-05 01:10 | 35.69293 | 140.42715 | 1281 ft | 140 kts | 330° |
| 2026-05-05 01:10 | 35.70134 | 140.42104 | 1119 ft | 141 kts | 330° |
| 2026-05-05 01:10 | 35.70983 | 140.41492 | 939 ft | 141 kts | 330° |
| 2026-05-05 01:10 | 35.71805 | 140.40897 | 751 ft | 134 kts | 330° |
| 2026-05-05 01:11 | 35.72619 | 140.40308 | 577 ft | 136 kts | 329° |
| 2026-05-05 01:11 | 35.73436 | 140.39718 | 393 ft | 137 kts | 329° |
| 2026-05-05 01:11 | 35.74246 | 140.39128 | 227 ft | 136 kts | 330° |
| 2026-05-05 01:11 | 35.75042 | 140.38555 | 149 ft | 124 kts | 329° |
| 2026-05-05 01:12 | 35.75637 | 140.38131 | 152 ft | 71 kts | 330° |
| 2026-05-05 01:12 | 35.75889 | 140.37995 | 151 ft | 33 kts | 347° |
| 2026-05-05 01:12 | 35.76042 | 140.37994 | 149 ft | 12 kts | 26° |
| 2026-05-05 01:12 | 35.76044 | 140.38081 | 149 ft | 9 kts | 129° |
| 2026-05-05 01:13 | 35.76021 | 140.38146 | 149 ft | 9 kts | 104° |
| 2026-05-05 01:13 | 35.76025 | 140.38225 | 149 ft | 10 kts | 84° |
| 2026-05-05 01:13 | 35.76020 | 140.38309 | 149 ft | 10 kts | 96° |
| 2026-05-05 01:13 | 35.76034 | 140.38370 | 149 ft | 7 kts | 65° |
| 2026-05-05 01:14 | 35.76058 | 140.38426 | 149 ft | 7 kts | 58° |
| 2026-05-05 01:14 | 35.76068 | 140.38446 | 149 ft | 0 kts | 59° |